Terminal Aerodrome Forecast
Issued by NWS

Home | Current Version | Previous Version | Graphics & Text | Print | Product List | Glossary On
Versions: 1 2 3 4 5 6 7 8 9 10 11 12
000
FTUS43 KMPX 250520
TAFRNH
TAF
KRNH 250520Z 2506/2606 17008KT P6SM VCSH BKN060 BKN110
     FM251500 18005KT P6SM SCT025 BKN040
     FM251900 14004KT P6SM VCSH BKN025
     FM252200 10006KT 3SM -SHRA BR OVC015
     FM260000 12005KT 2SM -RA BR OVC008=

USA.gov is the U.S. government's official web portal to all federal, state and local government web resources and services.